sensor_id;sensor_type;location;lat;lon;timestamp;pressure;altitude;pressure_sealevel;temperature;humidity
77737;BME280;66903;59.926;30.404;2024-02-15T00:01:58;102477.44;;;21.73;24.14
77737;BME280;66903;59.926;30.404;2024-02-15T00:07:09;102470.00;;;21.72;24.07
77737;BME280;66903;59.926;30.404;2024-02-15T00:12:20;102480.41;;;21.78;24.19
77737;BME280;66903;59.926;30.404;2024-02-15T00:17:31;102477.31;;;21.79;24.19
77737;BME280;66903;59.926;30.404;2024-02-15T00:22:43;102482.13;;;21.79;24.11
77737;BME280;66903;59.926;30.404;2024-02-15T00:27:54;102479.91;;;21.81;24.21
77737;BME280;66903;59.926;30.404;2024-02-15T00:33:05;102483.00;;;21.79;24.32
77737;BME280;66903;59.926;30.404;2024-02-15T00:38:16;102472.25;;;21.81;24.12
77737;BME280;66903;59.926;30.404;2024-02-15T00:43:27;102474.59;;;21.84;24.00
77737;BME280;66903;59.926;30.404;2024-02-15T00:48:38;102470.50;;;21.80;24.05
77737;BME280;66903;59.926;30.404;2024-02-15T00:53:49;102481.16;;;21.85;24.03
77737;BME280;66903;59.926;30.404;2024-02-15T00:59:00;102473.97;;;21.82;24.02
77737;BME280;66903;59.926;30.404;2024-02-15T01:04:13;102475.22;;;21.86;24.01
77737;BME280;66903;59.926;30.404;2024-02-15T01:09:24;102470.66;;;21.85;23.97
77737;BME280;66903;59.926;30.404;2024-02-15T01:14:35;102476.47;;;21.90;24.05
77737;BME280;66903;59.926;30.404;2024-02-15T01:19:46;102464.47;;;21.88;23.74
77737;BME280;66903;59.926;30.404;2024-02-15T01:24:56;102466.16;;;21.89;23.78
77737;BME280;66903;59.926;30.404;2024-02-15T01:30:07;102480.16;;;21.91;23.83
77737;BME280;66903;59.926;30.404;2024-02-15T01:35:18;102485.25;;;21.89;23.70
77737;BME280;66903;59.926;30.404;2024-02-15T01:40:29;102483.50;;;21.88;23.93
77737;BME280;66903;59.926;30.404;2024-02-15T01:45:40;102480.91;;;21.86;23.72
77737;BME280;66903;59.926;30.404;2024-02-15T01:50:51;102477.69;;;21.83;23.73
77737;BME280;66903;59.926;30.404;2024-02-15T01:56:02;102485.09;;;21.84;23.80
77737;BME280;66903;59.926;30.404;2024-02-15T02:01:14;102483.72;;;21.98;23.68
77737;BME280;66903;59.926;30.404;2024-02-15T02:06:25;102472.97;;;22.12;23.78
77737;BME280;66903;59.926;30.404;2024-02-15T02:11:36;102482.47;;;22.17;23.80
77737;BME280;66903;59.926;30.404;2024-02-15T02:16:47;102478.03;;;22.10;23.62
77737;BME280;66903;59.926;30.404;2024-02-15T02:21:58;102486.94;;;22.02;23.55
77737;BME280;66903;59.926;30.404;2024-02-15T02:27:09;102480.28;;;21.96;23.49
77737;BME280;66903;59.926;30.404;2024-02-15T02:32:20;102476.19;;;21.92;23.70
77737;BME280;66903;59.926;30.404;2024-02-15T02:37:31;102476.19;;;21.92;23.59
77737;BME280;66903;59.926;30.404;2024-02-15T02:42:50;102482.16;;;21.90;23.56
77737;BME280;66903;59.926;30.404;2024-02-15T02:48:01;102486.59;;;21.86;23.71
77737;BME280;66903;59.926;30.404;2024-02-15T02:53:12;102493.78;;;21.89;23.48
77737;BME280;66903;59.926;30.404;2024-02-15T02:58:24;102488.19;;;22.06;23.56
77737;BME280;66903;59.926;30.404;2024-02-15T03:03:35;102486.63;;;22.26;23.47
77737;BME280;66903;59.926;30.404;2024-02-15T03:08:46;102483.53;;;22.39;23.20
77737;BME280;66903;59.926;30.404;2024-02-15T03:13:57;102482.50;;;22.45;23.11
77737;BME280;66903;59.926;30.404;2024-02-15T03:19:10;102485.84;;;22.42;23.23
77737;BME280;66903;59.926;30.404;2024-02-15T03:24:22;102477.94;;;22.44;23.45
77737;BME280;66903;59.926;30.404;2024-02-15T03:29:33;102487.34;;;22.45;23.39
77737;BME280;66903;59.926;30.404;2024-02-15T03:34:46;102488.44;;;22.44;23.25
77737;BME280;66903;59.926;30.404;2024-02-15T03:39:56;102482.13;;;22.42;23.51
77737;BME280;66903;59.926;30.404;2024-02-15T03:45:07;102481.03;;;22.43;23.38
77737;BME280;66903;59.926;30.404;2024-02-15T03:50:19;102493.16;;;22.50;23.37
77737;BME280;66903;59.926;30.404;2024-02-15T03:55:32;102503.81;;;22.31;23.18
77737;BME280;66903;59.926;30.404;2024-02-15T04:00:43;102518.13;;;22.08;23.54
77737;BME280;66903;59.926;30.404;2024-02-15T04:05:54;102510.34;;;21.92;23.27
77737;BME280;66903;59.926;30.404;2024-02-15T04:11:05;102503.28;;;21.83;23.57
77737;BME280;66903;59.926;30.404;2024-02-15T04:16:18;102504.66;;;21.80;23.55
77737;BME280;66903;59.926;30.404;2024-02-15T04:21:28;102501.41;;;21.65;23.38
77737;BME280;66903;59.926;30.404;2024-02-15T04:26:41;102503.75;;;21.57;23.49
77737;BME280;66903;59.926;30.404;2024-02-15T04:31:52;102507.22;;;21.59;23.58
77737;BME280;66903;59.926;30.404;2024-02-15T04:37:05;102504.75;;;21.62;23.50
77737;BME280;66903;59.926;30.404;2024-02-15T04:42:19;102504.88;;;21.67;23.86
77737;BME280;66903;59.926;30.404;2024-02-15T04:47:30;102506.91;;;21.78;23.79
77737;BME280;66903;59.926;30.404;2024-02-15T04:52:41;102502.78;;;21.86;23.71
77737;BME280;66903;59.926;30.404;2024-02-15T04:57:55;102499.94;;;21.86;23.89
77737;BME280;66903;59.926;30.404;2024-02-15T05:03:06;102509.72;;;21.90;23.89
77737;BME280;66903;59.926;30.404;2024-02-15T05:08:18;102522.81;;;21.91;23.83
77737;BME280;66903;59.926;30.404;2024-02-15T05:13:28;102518.50;;;21.88;24.06
77737;BME280;66903;59.926;30.404;2024-02-15T05:18:39;102525.28;;;21.87;24.09
77737;BME280;66903;59.926;30.404;2024-02-15T05:23:53;102525.81;;;21.84;24.11
77737;BME280;66903;59.926;30.404;2024-02-15T05:29:03;102532.13;;;21.86;23.93
77737;BME280;66903;59.926;30.404;2024-02-15T05:34:15;102534.97;;;21.86;24.08
77737;BME280;66903;59.926;30.404;2024-02-15T05:39:26;102531.75;;;21.83;24.00
77737;BME280;66903;59.926;30.404;2024-02-15T05:44:36;102543.88;;;21.90;24.27
77737;BME280;66903;59.926;30.404;2024-02-15T05:49:47;102550.31;;;21.97;24.13
77737;BME280;66903;59.926;30.404;2024-02-15T05:54:57;102545.13;;;21.94;24.25
77737;BME280;66903;59.926;30.404;2024-02-15T06:00:09;102548.31;;;22.09;24.25
77737;BME280;66903;59.926;30.404;2024-02-15T06:05:19;102555.94;;;22.32;24.36
77737;BME280;66903;59.926;30.404;2024-02-15T06:10:30;102539.81;;;22.49;24.11
77737;BME280;66903;59.926;30.404;2024-02-15T06:15:41;102537.63;;;22.39;24.41
77737;BME280;66903;59.926;30.404;2024-02-15T06:20:52;102548.78;;;22.18;24.37
77737;BME280;66903;59.926;30.404;2024-02-15T06:26:03;102546.09;;;22.11;24.35
77737;BME280;66903;59.926;30.404;2024-02-15T06:31:14;102550.53;;;22.19;24.79
77737;BME280;66903;59.926;30.404;2024-02-15T07:05:31;102562.25;;;18.98;32.24
77737;BME280;66903;59.926;30.404;2024-02-15T07:10:42;102558.63;;;19.78;30.07
77737;BME280;66903;59.926;30.404;2024-02-15T07:15:53;102565.16;;;20.21;29.12
77737;BME280;66903;59.926;30.404;2024-02-15T07:21:04;102563.75;;;20.48;29.07
77737;BME280;66903;59.926;30.404;2024-02-15T07:26:18;102565.75;;;20.77;28.90
77737;BME280;66903;59.926;30.404;2024-02-15T07:31:30;102573.13;;;20.97;28.73
77737;BME280;66903;59.926;30.404;2024-02-15T07:36:42;102574.94;;;21.09;28.75
77737;BME280;66903;59.926;30.404;2024-02-15T07:41:56;102563.63;;;21.21;28.81
77737;BME280;66903;59.926;30.404;2024-02-15T07:47:10;102557.59;;;21.29;28.38
77737;BME280;66903;59.926;30.404;2024-02-15T07:52:20;102568.91;;;21.17;28.53
77737;BME280;66903;59.926;30.404;2024-02-15T07:57:31;102565.91;;;21.01;28.44
77737;BME280;66903;59.926;30.404;2024-02-15T08:02:42;102581.13;;;20.88;28.68
77737;BME280;66903;59.926;30.404;2024-02-15T08:07:53;102578.63;;;20.80;28.66
77737;BME280;66903;59.926;30.404;2024-02-15T08:13:07;102570.81;;;20.75;28.55
77737;BME280;66903;59.926;30.404;2024-02-15T08:18:19;102583.75;;;20.71;28.65
77737;BME280;66903;59.926;30.404;2024-02-15T08:23:30;102583.34;;;20.68;28.78
77737;BME280;66903;59.926;30.404;2024-02-15T08:28:42;102579.66;;;20.67;28.73
77737;BME280;66903;59.926;30.404;2024-02-15T08:33:53;102583.16;;;20.69;28.79
77737;BME280;66903;59.926;30.404;2024-02-15T08:39:03;102594.91;;;20.73;28.80
77737;BME280;66903;59.926;30.404;2024-02-15T08:44:15;102587.84;;;20.75;28.79
77737;BME280;66903;59.926;30.404;2024-02-15T08:49:26;102591.97;;;20.79;28.84
77737;BME280;66903;59.926;30.404;2024-02-15T08:54:37;102594.16;;;20.96;28.88
77737;BME280;66903;59.926;30.404;2024-02-15T08:59:52;102596.34;;;21.12;28.82
77737;BME280;66903;59.926;30.404;2024-02-15T09:05:03;102593.28;;;21.25;28.68
77737;BME280;66903;59.926;30.404;2024-02-15T09:10:14;102593.56;;;21.35;28.72
77737;BME280;66903;59.926;30.404;2024-02-15T09:15:27;102602.00;;;21.41;28.67
77737;BME280;66903;59.926;30.404;2024-02-15T09:20:41;102598.81;;;21.49;28.57
77737;BME280;66903;59.926;30.404;2024-02-15T09:25:55;102604.38;;;21.56;28.41
77737;BME280;66903;59.926;30.404;2024-02-15T09:31:05;102592.03;;;21.62;28.33
77737;BME280;66903;59.926;30.404;2024-02-15T09:36:16;102597.22;;;21.65;28.38
77737;BME280;66903;59.926;30.404;2024-02-15T09:41:27;102599.81;;;21.66;28.21
77737;BME280;66903;59.926;30.404;2024-02-15T09:46:42;102600.69;;;21.67;28.36
77737;BME280;66903;59.926;30.404;2024-02-15T09:51:58;102611.13;;;21.73;28.13
77737;BME280;66903;59.926;30.404;2024-02-15T09:57:11;102598.84;;;21.72;28.01
77737;BME280;66903;59.926;30.404;2024-02-15T10:02:22;102594.88;;;21.73;28.10
77737;BME280;66903;59.926;30.404;2024-02-15T10:07:34;102600.97;;;21.77;27.87
77737;BME280;66903;59.926;30.404;2024-02-15T10:12:44;102605.22;;;21.86;28.01
77737;BME280;66903;59.926;30.404;2024-02-15T10:17:59;102610.31;;;21.95;28.09
77737;BME280;66903;59.926;30.404;2024-02-15T10:23:11;102606.97;;;21.98;27.87
77737;BME280;66903;59.926;30.404;2024-02-15T10:28:22;102605.50;;;21.96;27.67
77737;BME280;66903;59.926;30.404;2024-02-15T10:33:37;102605.88;;;22.00;27.83
77737;BME280;66903;59.926;30.404;2024-02-15T10:38:48;102602.13;;;22.11;27.35
77737;BME280;66903;59.926;30.404;2024-02-15T10:44:00;102596.81;;;22.03;27.50
77737;BME280;66903;59.926;30.404;2024-02-15T10:49:11;102594.50;;;21.70;27.39
77737;BME280;66903;59.926;30.404;2024-02-15T10:54:46;102590.78;;;21.46;27.60
77737;BME280;66903;59.926;30.404;2024-02-15T10:59:59;102596.91;;;21.32;27.75
77737;BME280;66903;59.926;30.404;2024-02-15T11:05:20;102595.84;;;21.44;27.70
77737;BME280;66903;59.926;30.404;2024-02-15T11:10:35;102593.16;;;21.61;27.42
77737;BME280;66903;59.926;30.404;2024-02-15T11:15:47;102594.28;;;21.71;27.51
77737;BME280;66903;59.926;30.404;2024-02-15T11:21:01;102598.78;;;21.79;27.20
77737;BME280;66903;59.926;30.404;2024-02-15T11:26:43;102606.34;;;21.85;27.08
77737;BME280;66903;59.926;30.404;2024-02-15T11:31:57;102605.59;;;21.89;27.28
77737;BME280;66903;59.926;30.404;2024-02-15T11:37:08;102598.06;;;21.95;27.05
77737;BME280;66903;59.926;30.404;2024-02-15T11:42:25;102599.81;;;21.96;27.00
77737;BME280;66903;59.926;30.404;2024-02-15T11:47:40;102607.22;;;21.97;26.85
77737;BME280;66903;59.926;30.404;2024-02-15T11:53:01;102603.25;;;21.98;26.97
77737;BME280;66903;59.926;30.404;2024-02-15T11:58:16;102591.84;;;21.98;26.83
77737;BME280;66903;59.926;30.404;2024-02-15T12:03:32;102591.38;;;22.01;26.80
77737;BME280;66903;59.926;30.404;2024-02-15T12:09:02;102604.84;;;22.06;26.82
77737;BME280;66903;59.926;30.404;2024-02-15T12:14:31;102606.09;;;22.10;26.85
77737;BME280;66903;59.926;30.404;2024-02-15T12:20:02;102598.81;;;22.14;26.65
77737;BME280;66903;59.926;30.404;2024-02-15T12:25:23;102609.69;;;22.17;26.62
77737;BME280;66903;59.926;30.404;2024-02-15T12:30:34;102604.25;;;22.15;26.52
77737;BME280;66903;59.926;30.404;2024-02-15T12:35:50;102592.88;;;22.15;26.36
77737;BME280;66903;59.926;30.404;2024-02-15T12:41:01;102607.09;;;22.15;26.44
77737;BME280;66903;59.926;30.404;2024-02-15T12:46:18;102619.59;;;22.14;26.16
77737;BME280;66903;59.926;30.404;2024-02-15T12:51:30;102611.03;;;22.14;26.52
77737;BME280;66903;59.926;30.404;2024-02-15T12:56:41;102611.03;;;22.14;26.41
77737;BME280;66903;59.926;30.404;2024-02-15T13:01:52;102611.03;;;22.14;26.32
77737;BME280;66903;59.926;30.404;2024-02-15T13:07:02;102613.03;;;22.14;26.02
77737;BME280;66903;59.926;30.404;2024-02-15T13:12:13;102620.47;;;22.15;26.10
77737;BME280;66903;59.926;30.404;2024-02-15T13:17:24;102627.50;;;22.12;25.86
77737;BME280;66903;59.926;30.404;2024-02-15T13:22:37;102624.06;;;22.10;25.94
77737;BME280;66903;59.926;30.404;2024-02-15T13:27:49;102626.66;;;22.12;26.20
77737;BME280;66903;59.926;30.404;2024-02-15T13:32:59;102616.75;;;22.14;26.19
77737;BME280;66903;59.926;30.404;2024-02-15T13:38:11;102622.31;;;22.21;25.99
77737;BME280;66903;59.926;30.404;2024-02-15T13:43:24;102611.91;;;22.26;26.00
77737;BME280;66903;59.926;30.404;2024-02-15T13:48:35;102622.31;;;22.32;25.95
77737;BME280;66903;59.926;30.404;2024-02-15T13:53:46;102629.25;;;22.36;26.11
77737;BME280;66903;59.926;30.404;2024-02-15T13:58:57;102632.56;;;22.33;26.33
77737;BME280;66903;59.926;30.404;2024-02-15T14:04:09;102626.00;;;22.21;26.12
77737;BME280;66903;59.926;30.404;2024-02-15T14:09:19;102640.00;;;22.00;26.21
77737;BME280;66903;59.926;30.404;2024-02-15T14:14:30;102641.72;;;21.89;26.47
77737;BME280;66903;59.926;30.404;2024-02-15T14:19:41;102635.97;;;21.77;26.58
77737;BME280;66903;59.926;30.404;2024-02-15T14:24:51;102628.06;;;21.68;26.65
77737;BME280;66903;59.926;30.404;2024-02-15T14:30:02;102634.06;;;21.60;26.62
77737;BME280;66903;59.926;30.404;2024-02-15T14:35:36;102636.53;;;21.56;26.73
77737;BME280;66903;59.926;30.404;2024-02-15T14:40:50;102645.06;;;21.56;26.52
77737;BME280;66903;59.926;30.404;2024-02-15T14:46:04;102656.06;;;21.53;26.58
77737;BME280;66903;59.926;30.404;2024-02-15T14:51:20;102647.38;;;21.48;26.57
77737;BME280;66903;59.926;30.404;2024-02-15T14:56:31;102646.50;;;21.47;26.48
77737;BME280;66903;59.926;30.404;2024-02-15T15:01:42;102650.63;;;21.51;26.40
77737;BME280;66903;59.926;30.404;2024-02-15T15:06:53;102645.44;;;21.48;26.34
77737;BME280;66903;59.926;30.404;2024-02-15T15:12:22;102646.00;;;21.39;26.32
77737;BME280;66903;59.926;30.404;2024-02-15T15:17:50;102642.00;;;21.28;26.47
77737;BME280;66903;59.926;30.404;2024-02-15T15:23:01;102639.50;;;21.20;26.23
77737;BME280;66903;59.926;30.404;2024-02-15T15:28:12;102633.13;;;21.07;26.43
77737;BME280;66903;59.926;30.404;2024-02-15T15:33:24;102635.00;;;20.94;26.33
77737;BME280;66903;59.926;30.404;2024-02-15T15:38:34;102635.97;;;21.07;26.47
77737;BME280;66903;59.926;30.404;2024-02-15T15:43:45;102634.66;;;21.21;26.47
77737;BME280;66903;59.926;30.404;2024-02-15T15:48:56;102654.38;;;21.34;26.29
77737;BME280;66903;59.926;30.404;2024-02-15T15:54:07;102657.63;;;21.37;26.53
77737;BME280;66903;59.926;30.404;2024-02-15T15:59:18;102646.63;;;21.41;26.55
77737;BME280;66903;59.926;30.404;2024-02-15T16:04:29;102642.13;;;21.33;26.57
77737;BME280;66903;59.926;30.404;2024-02-15T16:09:40;102641.19;;;21.10;26.61
77737;BME280;66903;59.926;30.404;2024-02-15T16:14:56;102641.41;;;20.90;26.79
77737;BME280;66903;59.926;30.404;2024-02-15T16:20:08;102655.84;;;20.70;26.62
77737;BME280;66903;59.926;30.404;2024-02-15T16:25:19;102651.69;;;20.55;26.52
77737;BME280;66903;59.926;30.404;2024-02-15T16:30:30;102655.78;;;20.41;26.58
77737;BME280;66903;59.926;30.404;2024-02-15T16:35:43;102651.56;;;20.25;26.43
77737;BME280;66903;59.926;30.404;2024-02-15T16:40:53;102646.84;;;20.13;26.38
77737;BME280;66903;59.926;30.404;2024-02-15T16:46:04;102659.03;;;19.95;26.47
77737;BME280;66903;59.926;30.404;2024-02-15T16:51:15;102649.06;;;19.86;26.49
77737;BME280;66903;59.926;30.404;2024-02-15T16:56:29;102670.25;;;19.83;26.27
77737;BME280;66903;59.926;30.404;2024-02-15T17:01:40;102663.97;;;19.75;26.28
77737;BME280;66903;59.926;30.404;2024-02-15T17:06:51;102669.06;;;19.66;26.25
77737;BME280;66903;59.926;30.404;2024-02-15T17:12:02;102689.19;;;19.58;26.18
77737;BME280;66903;59.926;30.404;2024-02-15T17:17:16;102675.03;;;19.58;26.24
77737;BME280;66903;59.926;30.404;2024-02-15T17:22:27;102681.59;;;19.83;26.33
77737;BME280;66903;59.926;30.404;2024-02-15T17:27:38;102682.03;;;20.36;26.99
77737;BME280;66903;59.926;30.404;2024-02-15T17:32:49;102669.13;;;20.58;27.18
77737;BME280;66903;59.926;30.404;2024-02-15T17:38:00;102680.31;;;20.71;27.29
77737;BME280;66903;59.926;30.404;2024-02-15T17:43:11;102691.13;;;20.81;27.44
77737;BME280;66903;59.926;30.404;2024-02-15T17:48:21;102679.91;;;20.86;27.49
77737;BME280;66903;59.926;30.404;2024-02-15T17:53:33;102676.00;;;20.87;27.59
77737;BME280;66903;59.926;30.404;2024-02-15T17:58:46;102684.97;;;20.84;27.20
77737;BME280;66903;59.926;30.404;2024-02-15T18:03:58;102683.13;;;20.71;27.39
77737;BME280;66903;59.926;30.404;2024-02-15T18:09:09;102679.59;;;20.58;27.40
77737;BME280;66903;59.926;30.404;2024-02-15T18:14:19;102680.72;;;20.57;27.33
77737;BME280;66903;59.926;30.404;2024-02-15T18:19:32;102684.91;;;20.72;27.19
77737;BME280;66903;59.926;30.404;2024-02-15T18:24:43;102685.75;;;20.91;27.03
77737;BME280;66903;59.926;30.404;2024-02-15T18:29:55;102681.28;;;21.02;26.87
77737;BME280;66903;59.926;30.404;2024-02-15T18:35:10;102684.91;;;21.09;26.64
77737;BME280;66903;59.926;30.404;2024-02-15T18:40:21;102692.63;;;21.20;26.55
77737;BME280;66903;59.926;30.404;2024-02-15T18:45:35;102685.38;;;21.24;26.37
77737;BME280;66903;59.926;30.404;2024-02-15T18:50:46;102678.72;;;21.30;26.30
77737;BME280;66903;59.926;30.404;2024-02-15T18:55:57;102688.63;;;21.39;26.83
77737;BME280;66903;59.926;30.404;2024-02-15T19:01:09;102684.00;;;21.56;26.88
77737;BME280;66903;59.926;30.404;2024-02-15T19:06:20;102687.00;;;21.61;26.94
77737;BME280;66903;59.926;30.404;2024-02-15T19:11:31;102694.44;;;21.62;26.87
77737;BME280;66903;59.926;30.404;2024-02-15T19:16:42;102689.63;;;21.62;26.86
77737;BME280;66903;59.926;30.404;2024-02-15T19:21:52;102703.59;;;21.64;26.69
77737;BME280;66903;59.926;30.404;2024-02-15T19:27:03;102682.56;;;21.65;26.86
77737;BME280;66903;59.926;30.404;2024-02-15T19:32:14;102693.69;;;21.66;26.70
77737;BME280;66903;59.926;30.404;2024-02-15T19:37:25;102702.97;;;21.73;26.76
77737;BME280;66903;59.926;30.404;2024-02-15T19:42:40;102694.16;;;21.93;26.51
77737;BME280;66903;59.926;30.404;2024-02-15T19:47:52;102691.25;;;22.00;26.38
77737;BME280;66903;59.926;30.404;2024-02-15T19:53:05;102693.72;;;22.08;26.50
77737;BME280;66903;59.926;30.404;2024-02-15T19:58:18;102687.66;;;22.16;26.33
77737;BME280;66903;59.926;30.404;2024-02-15T20:03:28;102686.94;;;22.20;26.32
77737;BME280;66903;59.926;30.404;2024-02-15T20:08:42;102698.94;;;22.22;26.74
77737;BME280;66903;59.926;30.404;2024-02-15T20:13:54;102698.44;;;22.25;26.58
77737;BME280;66903;59.926;30.404;2024-02-15T20:19:05;102697.22;;;22.33;26.91
77737;BME280;66903;59.926;30.404;2024-02-15T20:24:16;102687.66;;;22.39;26.71
77737;BME280;66903;59.926;30.404;2024-02-15T20:29:29;102685.69;;;21.45;24.46
77737;BME280;66903;59.926;30.404;2024-02-15T20:34:43;102673.34;;;17.64;25.87
77737;BME280;66903;59.926;30.404;2024-02-15T20:39:53;102664.50;;;14.28;27.48
77737;BME280;66903;59.926;30.404;2024-02-15T20:45:04;102664.75;;;12.99;29.98
77737;BME280;66903;59.926;30.404;2024-02-15T20:50:15;102669.78;;;14.81;29.71
77737;BME280;66903;59.926;30.404;2024-02-15T20:55:27;102671.28;;;16.66;28.93
77737;BME280;66903;59.926;30.404;2024-02-15T21:00:39;102667.94;;;17.96;29.35
77737;BME280;66903;59.926;30.404;2024-02-15T21:05:51;102666.66;;;18.88;29.16
77737;BME280;66903;59.926;30.404;2024-02-15T21:11:02;102675.31;;;19.44;29.14
77737;BME280;66903;59.926;30.404;2024-02-15T21:16:30;102671.88;;;19.98;30.22
77737;BME280;66903;59.926;30.404;2024-02-15T21:21:43;102670.69;;;20.36;29.04
77737;BME280;66903;59.926;30.404;2024-02-15T21:26:55;102670.16;;;20.64;28.80
77737;BME280;66903;59.926;30.404;2024-02-15T21:32:10;102674.88;;;20.88;28.98
77737;BME280;66903;59.926;30.404;2024-02-15T21:37:25;102684.25;;;21.07;28.41
77737;BME280;66903;59.926;30.404;2024-02-15T21:42:35;102684.09;;;21.20;28.27
77737;BME280;66903;59.926;30.404;2024-02-15T21:47:46;102686.38;;;21.29;28.14
77737;BME280;66903;59.926;30.404;2024-02-15T21:52:58;102670.31;;;21.35;27.85
77737;BME280;66903;59.926;30.404;2024-02-15T21:58:10;102675.06;;;21.41;27.69
77737;BME280;66903;59.926;30.404;2024-02-15T22:03:22;102681.50;;;21.48;27.56
77737;BME280;66903;59.926;30.404;2024-02-15T22:08:33;102671.41;;;21.52;27.56
77737;BME280;66903;59.926;30.404;2024-02-15T22:13:45;102683.53;;;21.59;27.32
77737;BME280;66903;59.926;30.404;2024-02-15T22:18:56;102685.88;;;21.62;27.26
77737;BME280;66903;59.926;30.404;2024-02-15T22:24:07;102684.94;;;21.68;27.33
77737;BME280;66903;59.926;30.404;2024-02-15T22:29:18;102690.38;;;21.69;26.98
77737;BME280;66903;59.926;30.404;2024-02-15T22:34:29;102687.91;;;21.73;27.10
77737;BME280;66903;59.926;30.404;2024-02-15T22:39:39;102684.31;;;21.77;27.12
77737;BME280;66903;59.926;30.404;2024-02-15T22:44:50;102692.41;;;21.80;27.06
77737;BME280;66903;59.926;30.404;2024-02-15T22:50:01;102684.25;;;21.84;27.07
77737;BME280;66903;59.926;30.404;2024-02-15T22:55:12;102685.13;;;21.84;26.85
77737;BME280;66903;59.926;30.404;2024-02-15T23:00:23;102683.16;;;21.85;26.96
77737;BME280;66903;59.926;30.404;2024-02-15T23:05:33;102684.63;;;21.87;26.77
77737;BME280;66903;59.926;30.404;2024-02-15T23:10:45;102700.59;;;21.88;26.86
77737;BME280;66903;59.926;30.404;2024-02-15T23:15:56;102703.19;;;21.90;26.59
77737;BME280;66903;59.926;30.404;2024-02-15T23:21:09;102702.31;;;21.89;26.62
77737;BME280;66903;59.926;30.404;2024-02-15T23:26:20;102687.84;;;21.91;26.63
77737;BME280;66903;59.926;30.404;2024-02-15T23:31:31;102699.00;;;21.92;26.82
77737;BME280;66903;59.926;30.404;2024-02-15T23:36:41;102696.16;;;21.92;26.72
77737;BME280;66903;59.926;30.404;2024-02-15T23:42:11;102699.00;;;21.92;26.64
77737;BME280;66903;59.926;30.404;2024-02-15T23:47:21;102704.47;;;21.94;26.73
77737;BME280;66903;59.926;30.404;2024-02-15T23:52:33;102694.78;;;21.95;26.54
77737;BME280;66903;59.926;30.404;2024-02-15T23:57:45;102694.78;;;21.95;26.65
